sensor_id;sensor_type;location;lat;lon;timestamp;pressure;altitude;pressure_sealevel;temperature;humidity
16580;BME280;8402;51.466;6.806;2022-07-11T00:00:05;102026.81;;;20.42;70.10
16580;BME280;8402;51.466;6.806;2022-07-11T00:02:34;102035.38;;;20.37;70.39
16580;BME280;8402;51.466;6.806;2022-07-11T00:05:03;102038.34;;;20.32;70.87
16580;BME280;8402;51.466;6.806;2022-07-11T00:07:31;102033.19;;;20.30;70.79
16580;BME280;8402;51.466;6.806;2022-07-11T00:09:59;102033.44;;;20.25;71.48
16580;BME280;8402;51.466;6.806;2022-07-11T00:12:27;102031.97;;;20.16;71.53
16580;BME280;8402;51.466;6.806;2022-07-11T00:14:57;102023.22;;;20.14;71.94
16580;BME280;8402;51.466;6.806;2022-07-11T00:17:25;102028.28;;;20.12;72.05
16580;BME280;8402;51.466;6.806;2022-07-11T00:19:53;102027.41;;;20.08;72.34
16580;BME280;8402;51.466;6.806;2022-07-11T00:22:21;102022.13;;;20.02;72.39
16580;BME280;8402;51.466;6.806;2022-07-11T00:24:49;102026.94;;;20.05;71.99
16580;BME280;8402;51.466;6.806;2022-07-11T00:27:17;102024.53;;;20.04;71.98
16580;BME280;8402;51.466;6.806;2022-07-11T00:29:45;102024.44;;;20.00;72.22
16580;BME280;8402;51.466;6.806;2022-07-11T00:32:14;102025.91;;;19.98;72.53
16580;BME280;8402;51.466;6.806;2022-07-11T00:34:42;102023.16;;;19.98;72.56
16580;BME280;8402;51.466;6.806;2022-07-11T00:37:10;102017.19;;;19.96;72.63
16580;BME280;8402;51.466;6.806;2022-07-11T00:39:38;102019.16;;;19.95;72.66
16580;BME280;8402;51.466;6.806;2022-07-11T00:42:06;102015.94;;;19.93;72.78
16580;BME280;8402;51.466;6.806;2022-07-11T00:44:34;102019.03;;;19.92;72.84
16580;BME280;8402;51.466;6.806;2022-07-11T00:47:03;102019.03;;;19.92;73.04
16580;BME280;8402;51.466;6.806;2022-07-11T00:49:33;102015.13;;;19.93;73.19
16580;BME280;8402;51.466;6.806;2022-07-11T00:52:01;102017.78;;;19.89;72.88
16580;BME280;8402;51.466;6.806;2022-07-11T00:54:29;102015.47;;;19.91;72.93
16580;BME280;8402;51.466;6.806;2022-07-11T00:56:57;102019.59;;;19.85;73.42
16580;BME280;8402;51.466;6.806;2022-07-11T00:59:25;102019.50;;;19.82;73.41
16580;BME280;8402;51.466;6.806;2022-07-11T01:01:54;102019.50;;;19.82;73.53
16580;BME280;8402;51.466;6.806;2022-07-11T01:04:23;102016.97;;;19.76;73.81
16580;BME280;8402;51.466;6.806;2022-07-11T01:06:52;102015.72;;;19.74;73.83
16580;BME280;8402;51.466;6.806;2022-07-11T01:09:20;102020.78;;;19.72;73.83
16580;BME280;8402;51.466;6.806;2022-07-11T01:11:48;102011.16;;;19.66;74.02
16580;BME280;8402;51.466;6.806;2022-07-11T01:14:16;102011.72;;;19.59;74.34
16580;BME280;8402;51.466;6.806;2022-07-11T01:16:45;102009.97;;;19.55;74.55
16580;BME280;8402;51.466;6.806;2022-07-11T01:19:13;102014.56;;;19.50;74.77
16580;BME280;8402;51.466;6.806;2022-07-11T01:21:43;102005.47;;;19.50;74.68
16580;BME280;8402;51.466;6.806;2022-07-11T01:24:13;102013.41;;;19.51;74.98
16580;BME280;8402;51.466;6.806;2022-07-11T01:26:48;102008.22;;;19.50;75.08
16580;BME280;8402;51.466;6.806;2022-07-11T01:29:16;102015.22;;;19.47;75.14
16580;BME280;8402;51.466;6.806;2022-07-11T01:31:44;102020.75;;;19.47;75.11
16580;BME280;8402;51.466;6.806;2022-07-11T01:34:12;102016.03;;;19.48;75.45
16580;BME280;8402;51.466;6.806;2022-07-11T01:36:40;102012.63;;;19.51;75.29
16580;BME280;8402;51.466;6.806;2022-07-11T01:39:09;102004.81;;;19.53;75.54
16580;BME280;8402;51.466;6.806;2022-07-11T01:41:38;102003.81;;;19.58;75.08
16580;BME280;8402;51.466;6.806;2022-07-11T01:44:06;102002.16;;;19.57;75.18
16580;BME280;8402;51.466;6.806;2022-07-11T01:46:34;102001.25;;;19.52;75.76
16580;BME280;8402;51.466;6.806;2022-07-11T01:49:02;101999.06;;;19.46;75.85
16580;BME280;8402;51.466;6.806;2022-07-11T01:51:30;101997.13;;;19.46;75.87
16580;BME280;8402;51.466;6.806;2022-07-11T01:53:58;101998.03;;;19.38;76.39
16580;BME280;8402;51.466;6.806;2022-07-11T01:56:27;102002.03;;;19.41;76.30
16580;BME280;8402;51.466;6.806;2022-07-11T01:59:00;102006.75;;;19.40;76.52
16580;BME280;8402;51.466;6.806;2022-07-11T02:01:30;102004.00;;;19.40;76.30
16580;BME280;8402;51.466;6.806;2022-07-11T02:03:58;102012.25;;;19.40;76.28
16580;BME280;8402;51.466;6.806;2022-07-11T02:06:27;102001.03;;;19.45;76.57
16580;BME280;8402;51.466;6.806;2022-07-11T02:08:55;102000.44;;;19.52;76.19
16580;BME280;8402;51.466;6.806;2022-07-11T02:11:23;101999.41;;;19.57;76.25
16580;BME280;8402;51.466;6.806;2022-07-11T02:13:51;102004.47;;;19.55;76.40
16580;BME280;8402;51.466;6.806;2022-07-11T02:16:20;101998.16;;;19.54;75.91
16580;BME280;8402;51.466;6.806;2022-07-11T02:18:49;102003.66;;;19.54;75.98
16580;BME280;8402;51.466;6.806;2022-07-11T02:21:17;101990.91;;;19.49;76.09
16580;BME280;8402;51.466;6.806;2022-07-11T02:23:45;102001.03;;;19.45;76.12
16580;BME280;8402;51.466;6.806;2022-07-11T02:26:13;102010.31;;;19.41;76.76
16580;BME280;8402;51.466;6.806;2022-07-11T02:28:41;102003.75;;;19.33;77.29
16580;BME280;8402;51.466;6.806;2022-07-11T02:31:11;102002.16;;;19.32;77.39
16580;BME280;8402;51.466;6.806;2022-07-11T02:33:40;102002.97;;;19.33;77.33
16580;BME280;8402;51.466;6.806;2022-07-11T02:36:09;102004.66;;;19.25;78.34
16580;BME280;8402;51.466;6.806;2022-07-11T02:38:37;102005.94;;;19.28;77.68
16580;BME280;8402;51.466;6.806;2022-07-11T02:41:05;102000.31;;;19.24;77.92
16580;BME280;8402;51.466;6.806;2022-07-11T02:43:33;101995.38;;;19.17;78.04
16580;BME280;8402;51.466;6.806;2022-07-11T02:46:02;101994.56;;;19.17;78.21
16580;BME280;8402;51.466;6.806;2022-07-11T02:48:30;101996.19;;;19.18;78.15
16580;BME280;8402;51.466;6.806;2022-07-11T02:50:59;101998.47;;;19.16;78.26
16580;BME280;8402;51.466;6.806;2022-07-11T02:53:27;102005.59;;;19.17;78.12
16580;BME280;8402;51.466;6.806;2022-07-11T02:55:55;102000.09;;;19.17;77.92
16580;BME280;8402;51.466;6.806;2022-07-11T02:58:23;101999.63;;;19.15;78.03
16580;BME280;8402;51.466;6.806;2022-07-11T03:00:51;102001.44;;;19.11;78.25
16580;BME280;8402;51.466;6.806;2022-07-11T03:03:19;102006.16;;;19.10;78.27
16580;BME280;8402;51.466;6.806;2022-07-11T03:05:48;102002.13;;;19.08;77.78
16580;BME280;8402;51.466;6.806;2022-07-11T03:08:18;102009.69;;;19.11;77.90
16580;BME280;8402;51.466;6.806;2022-07-11T03:10:46;102006.94;;;19.11;77.99
16580;BME280;8402;51.466;6.806;2022-07-11T03:13:15;102011.06;;;19.05;78.22
16580;BME280;8402;51.466;6.806;2022-07-11T03:15:44;102013.81;;;19.05;78.30
16580;BME280;8402;51.466;6.806;2022-07-11T03:18:12;102005.75;;;19.00;78.63
16580;BME280;8402;51.466;6.806;2022-07-11T03:20:40;102016.75;;;19.00;78.30
16580;BME280;8402;51.466;6.806;2022-07-11T03:23:07;102011.63;;;18.98;78.32
16580;BME280;8402;51.466;6.806;2022-07-11T03:25:37;102009.66;;;18.98;78.01
16580;BME280;8402;51.466;6.806;2022-07-11T03:28:05;102013.56;;;18.97;78.05
16580;BME280;8402;51.466;6.806;2022-07-11T03:30:33;102019.06;;;18.97;77.54
16580;BME280;8402;51.466;6.806;2022-07-11T03:33:01;102016.75;;;19.00;77.63
16580;BME280;8402;51.466;6.806;2022-07-11T03:35:30;102022.00;;;18.92;77.78
16580;BME280;8402;51.466;6.806;2022-07-11T03:38:10;102013.19;;;18.87;77.70
16580;BME280;8402;51.466;6.806;2022-07-11T03:40:40;102019.97;;;18.89;77.39
16580;BME280;8402;51.466;6.806;2022-07-11T03:43:08;102026.06;;;18.95;77.56
16580;BME280;8402;51.466;6.806;2022-07-11T03:45:36;102019.06;;;18.97;77.00
16580;BME280;8402;51.466;6.806;2022-07-11T03:48:06;102020.81;;;19.02;77.37
16580;BME280;8402;51.466;6.806;2022-07-11T03:50:37;102023.31;;;19.07;76.92
16580;BME280;8402;51.466;6.806;2022-07-11T03:53:05;102025.25;;;19.07;76.53
16580;BME280;8402;51.466;6.806;2022-07-11T03:55:33;102016.09;;;19.03;76.61
16580;BME280;8402;51.466;6.806;2022-07-11T03:58:05;102028.00;;;19.07;76.30
16580;BME280;8402;51.466;6.806;2022-07-11T04:00:34;102020.91;;;19.06;76.72
16580;BME280;8402;51.466;6.806;2022-07-11T04:03:02;102028.94;;;19.11;76.90
16580;BME280;8402;51.466;6.806;2022-07-11T04:05:30;102022.75;;;19.14;76.64
16580;BME280;8402;51.466;6.806;2022-07-11T04:07:58;102026.00;;;19.16;76.51
16580;BME280;8402;51.466;6.806;2022-07-11T04:10:26;102029.19;;;19.18;76.28
16580;BME280;8402;51.466;6.806;2022-07-11T04:12:54;102030.81;;;19.19;75.76
16580;BME280;8402;51.466;6.806;2022-07-11T04:15:23;102027.13;;;19.15;76.53
16580;BME280;8402;51.466;6.806;2022-07-11T04:17:51;102024.25;;;19.11;76.58
16580;BME280;8402;51.466;6.806;2022-07-11T04:20:20;102028.94;;;19.11;76.76
16580;BME280;8402;51.466;6.806;2022-07-11T04:22:48;102031.34;;;19.12;76.34
16580;BME280;8402;51.466;6.806;2022-07-11T04:25:16;102030.56;;;19.12;76.68
16580;BME280;8402;51.466;6.806;2022-07-11T04:27:44;102029.88;;;19.15;76.21
16580;BME280;8402;51.466;6.806;2022-07-11T04:30:12;102025.06;;;19.12;76.08
16580;BME280;8402;51.466;6.806;2022-07-11T04:32:41;102031.25;;;19.09;76.40
16580;BME280;8402;51.466;6.806;2022-07-11T04:35:09;102029.06;;;19.14;75.89
16580;BME280;8402;51.466;6.806;2022-07-11T04:37:37;102030.69;;;19.15;75.52
16580;BME280;8402;51.466;6.806;2022-07-11T04:40:06;102036.84;;;19.12;75.75
16580;BME280;8402;51.466;6.806;2022-07-11T04:42:39;102040.91;;;19.15;75.50
16580;BME280;8402;51.466;6.806;2022-07-11T04:45:08;102035.41;;;19.15;75.27
16580;BME280;8402;51.466;6.806;2022-07-11T04:47:36;102041.22;;;19.13;75.78
16580;BME280;8402;51.466;6.806;2022-07-11T04:50:06;102042.72;;;19.11;75.34
16580;BME280;8402;51.466;6.806;2022-07-11T04:52:34;102039.59;;;19.12;75.52
16580;BME280;8402;51.466;6.806;2022-07-11T04:55:03;102048.00;;;19.16;75.45
16580;BME280;8402;51.466;6.806;2022-07-11T04:57:31;102046.16;;;19.20;75.46
16580;BME280;8402;51.466;6.806;2022-07-11T04:59:59;102041.13;;;19.22;75.47
16580;BME280;8402;51.466;6.806;2022-07-11T05:02:27;102036.44;;;19.22;75.31
16580;BME280;8402;51.466;6.806;2022-07-11T05:04:55;102040.44;;;19.25;75.32
16580;BME280;8402;51.466;6.806;2022-07-11T05:07:24;102049.84;;;19.24;75.16
16580;BME280;8402;51.466;6.806;2022-07-11T05:09:52;102046.66;;;19.22;75.46
16580;BME280;8402;51.466;6.806;2022-07-11T05:12:20;102053.75;;;19.23;75.00
16580;BME280;8402;51.466;6.806;2022-07-11T05:14:48;102046.66;;;19.22;75.30
16580;BME280;8402;51.466;6.806;2022-07-11T05:17:16;102050.19;;;19.22;74.84
16580;BME280;8402;51.466;6.806;2022-07-11T05:19:44;102053.75;;;19.23;75.24
16580;BME280;8402;51.466;6.806;2022-07-11T05:22:12;102052.16;;;19.22;74.97
16580;BME280;8402;51.466;6.806;2022-07-11T05:24:41;102058.44;;;19.22;75.04
16580;BME280;8402;51.466;6.806;2022-07-11T05:27:09;102062.47;;;19.25;75.44
16580;BME280;8402;51.466;6.806;2022-07-11T05:29:37;102059.47;;;19.18;75.27
16580;BME280;8402;51.466;6.806;2022-07-11T05:32:05;102064.50;;;19.16;75.30
16580;BME280;8402;51.466;6.806;2022-07-11T05:34:33;102067.91;;;19.13;75.72
16580;BME280;8402;51.466;6.806;2022-07-11T05:37:02;102066.13;;;19.17;75.71
16580;BME280;8402;51.466;6.806;2022-07-11T05:39:30;102064.75;;;19.23;75.78
16580;BME280;8402;51.466;6.806;2022-07-11T05:41:59;102073.13;;;19.27;75.78
16580;BME280;8402;51.466;6.806;2022-07-11T05:44:27;102068.75;;;19.25;75.93
16580;BME280;8402;51.466;6.806;2022-07-11T05:46:58;102067.97;;;19.25;75.94
16580;BME280;8402;51.466;6.806;2022-07-11T05:49:30;102075.53;;;19.28;76.05
16580;BME280;8402;51.466;6.806;2022-07-11T05:51:58;102079.91;;;19.29;75.89
16580;BME280;8402;51.466;6.806;2022-07-11T05:54:26;102080.38;;;19.31;76.25
16580;BME280;8402;51.466;6.806;2022-07-11T05:56:54;102079.22;;;19.32;76.06
16580;BME280;8402;51.466;6.806;2022-07-11T05:59:23;102084.59;;;19.29;76.31
16580;BME280;8402;51.466;6.806;2022-07-11T06:01:51;102086.53;;;19.28;76.60
16580;BME280;8402;51.466;6.806;2022-07-11T06:04:19;102082.97;;;19.28;76.97
16580;BME280;8402;51.466;6.806;2022-07-11T06:06:48;102092.03;;;19.28;76.93
16580;BME280;8402;51.466;6.806;2022-07-11T06:09:16;102086.06;;;19.26;76.81
16580;BME280;8402;51.466;6.806;2022-07-11T06:11:42;102084.69;;;19.20;77.59
16580;BME280;8402;51.466;6.806;2022-07-11T06:14:10;102090.19;;;19.20;77.84
16580;BME280;8402;51.466;6.806;2022-07-11T06:16:40;102082.72;;;19.20;78.38
16580;BME280;8402;51.466;6.806;2022-07-11T06:19:08;102084.69;;;19.20;78.34
16580;BME280;8402;51.466;6.806;2022-07-11T06:21:36;102094.13;;;19.31;78.51
16580;BME280;8402;51.466;6.806;2022-07-11T06:24:06;102091.03;;;19.33;78.56
16580;BME280;8402;51.466;6.806;2022-07-11T06:26:33;102099.88;;;19.38;78.13
16580;BME280;8402;51.466;6.806;2022-07-11T06:29:02;102098.72;;;19.39;78.32
16580;BME280;8402;51.466;6.806;2022-07-11T06:31:30;102098.94;;;19.34;78.47
16580;BME280;8402;51.466;6.806;2022-07-11T06:34:00;102088.31;;;19.45;78.35
16580;BME280;8402;51.466;6.806;2022-07-11T06:36:28;102092.09;;;19.52;78.37
16580;BME280;8402;51.466;6.806;2022-07-11T06:38:56;102095.91;;;19.60;78.20
16580;BME280;8402;51.466;6.806;2022-07-11T06:41:24;102092.81;;;19.62;78.06
16580;BME280;8402;51.466;6.806;2022-07-11T06:43:52;102083.66;;;19.70;78.24
16580;BME280;8402;51.466;6.806;2022-07-11T06:46:19;102093.06;;;19.81;78.11
16580;BME280;8402;51.466;6.806;2022-07-11T06:48:48;102094.69;;;19.82;77.64
16580;BME280;8402;51.466;6.806;2022-07-11T06:51:18;102103.75;;;19.83;77.76
16580;BME280;8402;51.466;6.806;2022-07-11T06:53:48;102096.72;;;19.85;77.63
16580;BME280;8402;51.466;6.806;2022-07-11T06:56:16;102098.69;;;19.85;77.85
16580;BME280;8402;51.466;6.806;2022-07-11T06:58:44;102099.16;;;19.87;77.68
16580;BME280;8402;51.466;6.806;2022-07-11T07:01:11;102102.47;;;19.92;77.50
16580;BME280;8402;51.466;6.806;2022-07-11T07:03:40;102105.69;;;19.94;77.23
16580;BME280;8402;51.466;6.806;2022-07-11T07:06:09;102094.69;;;19.94;76.85
16580;BME280;8402;51.466;6.806;2022-07-11T07:08:38;102096.28;;;19.95;76.85
16580;BME280;8402;51.466;6.806;2022-07-11T07:11:06;102093.75;;;19.90;76.84
16580;BME280;8402;51.466;6.806;2022-07-11T07:13:35;102088.38;;;19.94;76.55
16580;BME280;8402;51.466;6.806;2022-07-11T07:16:04;102089.63;;;19.96;76.54
16580;BME280;8402;51.466;6.806;2022-07-11T07:18:34;102089.84;;;19.91;76.46
16580;BME280;8402;51.466;6.806;2022-07-11T07:21:08;102092.72;;;19.95;76.56
16580;BME280;8402;51.466;6.806;2022-07-11T07:23:37;102096.06;;;20.00;76.50
16580;BME280;8402;51.466;6.806;2022-07-11T07:26:06;102100.88;;;20.03;75.88
16580;BME280;8402;51.466;6.806;2022-07-11T07:28:34;102092.81;;;20.11;76.21
16580;BME280;8402;51.466;6.806;2022-07-11T07:31:02;102097.88;;;20.09;75.88
16580;BME280;8402;51.466;6.806;2022-07-11T07:33:31;102096.75;;;20.10;75.47
16580;BME280;8402;51.466;6.806;2022-07-11T07:36:11;102091.91;;;20.06;75.66
16580;BME280;8402;51.466;6.806;2022-07-11T07:38:41;102093.97;;;20.22;76.01
16580;BME280;8402;51.466;6.806;2022-07-11T07:41:11;102087.97;;;20.44;75.62
16580;BME280;8402;51.466;6.806;2022-07-11T07:43:39;102090.94;;;20.51;74.83
16580;BME280;8402;51.466;6.806;2022-07-11T07:46:08;102097.56;;;20.63;74.83
16580;BME280;8402;51.466;6.806;2022-07-11T07:48:37;102101.47;;;20.61;74.08
16580;BME280;8402;51.466;6.806;2022-07-11T07:51:05;102095.16;;;20.61;74.05
16580;BME280;8402;51.466;6.806;2022-07-11T07:53:34;102092.25;;;20.70;74.32
16580;BME280;8402;51.466;6.806;2022-07-11T07:56:04;102089.47;;;20.82;73.95
16580;BME280;8402;51.466;6.806;2022-07-11T07:58:32;102090.81;;;20.88;73.36
16580;BME280;8402;51.466;6.806;2022-07-11T08:01:00;102085.75;;;20.90;73.65
16580;BME280;8402;51.466;6.806;2022-07-11T08:03:45;102082.94;;;21.02;73.80
16580;BME280;8402;51.466;6.806;2022-07-11T08:06:13;102084.53;;;21.03;72.98
16580;BME280;8402;51.466;6.806;2022-07-11T08:08:42;102084.63;;;21.07;73.23
16580;BME280;8402;51.466;6.806;2022-07-11T08:11:11;102080.56;;;21.16;72.87
16580;BME280;8402;51.466;6.806;2022-07-11T08:13:57;102082.94;;;21.30;73.13
16580;BME280;8402;51.466;6.806;2022-07-11T08:16:25;102088.28;;;21.39;72.39
16580;BME280;8402;51.466;6.806;2022-07-11T08:18:56;102085.59;;;21.42;72.20
16580;BME280;8402;51.466;6.806;2022-07-11T08:21:25;102085.44;;;21.51;72.49
16580;BME280;8402;51.466;6.806;2022-07-11T08:23:53;102086.91;;;21.64;71.68
16580;BME280;8402;51.466;6.806;2022-07-11T08:26:23;102089.69;;;21.80;71.32
16580;BME280;8402;51.466;6.806;2022-07-11T08:28:57;102087.44;;;21.86;70.68
16580;BME280;8402;51.466;6.806;2022-07-11T08:31:25;102079.94;;;22.02;70.88
16580;BME280;8402;51.466;6.806;2022-07-11T08:33:53;102091.44;;;22.04;69.92
16580;BME280;8402;51.466;6.806;2022-07-11T08:36:24;102091.06;;;22.06;70.27
16580;BME280;8402;51.466;6.806;2022-07-11T08:38:51;102092.22;;;22.20;69.84
16580;BME280;8402;51.466;6.806;2022-07-11T08:41:20;102087.91;;;22.39;69.79
16580;BME280;8402;51.466;6.806;2022-07-11T08:43:49;102092.94;;;22.52;69.33
16580;BME280;8402;51.466;6.806;2022-07-11T08:46:19;102092.19;;;22.56;68.63
16580;BME280;8402;51.466;6.806;2022-07-11T08:48:48;102089.97;;;22.61;68.61
16580;BME280;8402;51.466;6.806;2022-07-11T08:51:17;102089.81;;;22.73;68.43
16580;BME280;8402;51.466;6.806;2022-07-11T08:53:46;102088.34;;;22.99;68.69
16580;BME280;8402;51.466;6.806;2022-07-11T08:56:14;102085.44;;;23.11;67.62
16580;BME280;8402;51.466;6.806;2022-07-11T08:58:45;102087.59;;;23.21;67.39
16580;BME280;8402;51.466;6.806;2022-07-11T09:01:27;102095.09;;;23.21;65.85
16580;BME280;8402;51.466;6.806;2022-07-11T09:03:57;102097.53;;;23.22;66.21
16580;BME280;8402;51.466;6.806;2022-07-11T09:06:25;102097.19;;;23.27;65.79
16580;BME280;8402;51.466;6.806;2022-07-11T09:08:57;102085.78;;;23.29;65.86
16580;BME280;8402;51.466;6.806;2022-07-11T09:11:25;102092.25;;;23.37;65.62
16580;BME280;8402;51.466;6.806;2022-07-11T09:13:53;102088.41;;;23.45;65.58
16580;BME280;8402;51.466;6.806;2022-07-11T09:16:23;102088.09;;;23.50;65.41
16580;BME280;8402;51.466;6.806;2022-07-11T09:18:57;102093.16;;;23.44;64.70
16580;BME280;8402;51.466;6.806;2022-07-11T09:21:25;102089.13;;;23.42;64.68
16580;BME280;8402;51.466;6.806;2022-07-11T09:24:11;102090.44;;;23.25;64.48
16580;BME280;8402;51.466;6.806;2022-07-11T09:27:12;102083.22;;;23.20;65.64
16580;BME280;8402;51.466;6.806;2022-07-11T09:29:40;102086.44;;;23.22;65.32
16580;BME280;8402;51.466;6.806;2022-07-11T09:32:09;102079.09;;;23.11;65.27
16580;BME280;8402;51.466;6.806;2022-07-11T09:34:37;102081.50;;;23.12;65.64
16580;BME280;8402;51.466;6.806;2022-07-11T09:37:12;102082.00;;;23.18;65.52
16580;BME280;8402;51.466;6.806;2022-07-11T09:39:40;102082.00;;;23.18;64.37
16580;BME280;8402;51.466;6.806;2022-07-11T09:42:08;102090.31;;;22.98;64.61
16580;BME280;8402;51.466;6.806;2022-07-11T09:44:36;102085.91;;;22.94;65.45
16580;BME280;8402;51.466;6.806;2022-07-11T09:47:09;102086.75;;;22.98;65.21
16580;BME280;8402;51.466;6.806;2022-07-11T09:49:39;102089.91;;;22.96;64.99
16580;BME280;8402;51.466;6.806;2022-07-11T09:52:09;102091.44;;;22.94;65.15
16580;BME280;8402;51.466;6.806;2022-07-11T09:54:53;102091.03;;;22.76;64.49
16580;BME280;8402;51.466;6.806;2022-07-11T09:57:30;102091.56;;;22.82;64.95
16580;BME280;8402;51.466;6.806;2022-07-11T09:59:58;102088.06;;;22.85;65.36
16580;BME280;8402;51.466;6.806;2022-07-11T10:02:29;102094.56;;;22.92;65.73
16580;BME280;8402;51.466;6.806;2022-07-11T10:04:57;102095.56;;;23.03;65.51
16580;BME280;8402;51.466;6.806;2022-07-11T10:07:26;102085.00;;;23.09;65.33
16580;BME280;8402;51.466;6.806;2022-07-11T10:09:55;102089.44;;;23.14;65.10
16580;BME280;8402;51.466;6.806;2022-07-11T10:12:24;102086.53;;;23.06;64.45
16580;BME280;8402;51.466;6.806;2022-07-11T10:14:54;102086.91;;;23.05;64.54
16580;BME280;8402;51.466;6.806;2022-07-11T10:17:30;102088.50;;;23.06;64.72
16580;BME280;8402;51.466;6.806;2022-07-11T10:20:06;102086.59;;;23.10;64.89
16580;BME280;8402;51.466;6.806;2022-07-11T10:22:40;102094.16;;;23.13;64.95
16580;BME280;8402;51.466;6.806;2022-07-11T10:25:17;102086.75;;;23.17;64.61
16580;BME280;8402;51.466;6.806;2022-07-11T10:28:06;102087.38;;;23.30;63.83
16580;BME280;8402;51.466;6.806;2022-07-11T10:30:40;102093.03;;;23.37;63.20
16580;BME280;8402;51.466;6.806;2022-07-11T10:33:10;102087.53;;;23.41;63.96
16580;BME280;8402;51.466;6.806;2022-07-11T10:35:40;102095.06;;;23.40;63.14
16580;BME280;8402;51.466;6.806;2022-07-11T10:38:08;102097.19;;;23.27;62.82
16580;BME280;8402;51.466;6.806;2022-07-11T10:40:45;102097.31;;;23.12;63.38
16580;BME280;8402;51.466;6.806;2022-07-11T10:43:15;102113.13;;;23.11;63.85
16580;BME280;8402;51.466;6.806;2022-07-11T10:45:57;102112.59;;;23.05;63.77
16580;BME280;8402;51.466;6.806;2022-07-11T10:48:28;102116.97;;;23.06;64.23
16580;BME280;8402;51.466;6.806;2022-07-11T10:51:19;102121.75;;;22.87;64.43
16580;BME280;8402;51.466;6.806;2022-07-11T10:53:51;102123.91;;;22.97;64.46
16580;BME280;8402;51.466;6.806;2022-07-11T10:56:36;102122.88;;;23.05;64.74
16580;BME280;8402;51.466;6.806;2022-07-11T10:59:21;102109.69;;;23.18;65.10
16580;BME280;8402;51.466;6.806;2022-07-11T11:02:09;102110.84;;;23.17;64.59
16580;BME280;8402;51.466;6.806;2022-07-11T11:04:44;102111.16;;;23.34;65.26
16580;BME280;8402;51.466;6.806;2022-07-11T11:07:32;102114.44;;;23.40;64.88
16580;BME280;8402;51.466;6.806;2022-07-11T11:10:05;102109.03;;;23.47;64.86
16580;BME280;8402;51.466;6.806;2022-07-11T11:13:11;102116.53;;;23.47;64.98
16580;BME280;8402;51.466;6.806;2022-07-11T11:15:43;102116.97;;;23.49;64.59
16580;BME280;8402;51.466;6.806;2022-07-11T11:18:31;102113.81;;;23.27;63.66
16580;BME280;8402;51.466;6.806;2022-07-11T11:21:22;102111.78;;;23.24;64.34
16580;BME280;8402;51.466;6.806;2022-07-11T11:24:04;102118.19;;;23.28;63.89
16580;BME280;8402;51.466;6.806;2022-07-11T11:26:50;102118.19;;;23.28;64.48
16580;BME280;8402;51.466;6.806;2022-07-11T11:29:20;102112.28;;;23.30;64.51
16580;BME280;8402;51.466;6.806;2022-07-11T11:31:50;102123.72;;;23.28;64.44
16580;BME280;8402;51.466;6.806;2022-07-11T11:34:19;102112.50;;;23.21;64.11
16580;BME280;8402;51.466;6.806;2022-07-11T11:36:57;102119.41;;;23.08;64.66
16580;BME280;8402;51.466;6.806;2022-07-11T11:39:28;102129.31;;;23.09;65.02
16580;BME280;8402;51.466;6.806;2022-07-11T11:42:05;102121.28;;;23.04;64.21
16580;BME280;8402;51.466;6.806;2022-07-11T11:44:34;102128.00;;;23.03;64.84
16580;BME280;8402;51.466;6.806;2022-07-11T11:47:03;102127.25;;;23.06;65.09
16580;BME280;8402;51.466;6.806;2022-07-11T11:49:41;102129.31;;;22.90;65.02
16580;BME280;8402;51.466;6.806;2022-07-11T11:52:11;102123.16;;;23.00;65.03
16580;BME280;8402;51.466;6.806;2022-07-11T11:54:39;102127.63;;;23.04;65.18
16580;BME280;8402;51.466;6.806;2022-07-11T11:57:09;102126.09;;;23.07;65.21
16580;BME280;8402;51.466;6.806;2022-07-11T11:59:39;102115.47;;;23.09;65.07
16580;BME280;8402;51.466;6.806;2022-07-11T12:02:09;102110.78;;;23.13;65.09
16580;BME280;8402;51.466;6.806;2022-07-11T12:04:37;102110.91;;;23.20;65.27
16580;BME280;8402;51.466;6.806;2022-07-11T12:07:06;102108.72;;;23.29;65.35
16580;BME280;8402;51.466;6.806;2022-07-11T12:09:35;102108.78;;;23.33;63.90
16580;BME280;8402;51.466;6.806;2022-07-11T12:12:18;102111.16;;;23.34;64.29
16580;BME280;8402;51.466;6.806;2022-07-11T12:15:00;102108.84;;;23.37;64.22
16580;BME280;8402;51.466;6.806;2022-07-11T12:17:29;102104.16;;;23.41;64.56
16580;BME280;8402;51.466;6.806;2022-07-11T12:19:57;102107.19;;;23.32;64.20
16580;BME280;8402;51.466;6.806;2022-07-11T12:22:25;102114.31;;;23.33;64.12
16580;BME280;8402;51.466;6.806;2022-07-11T12:24:55;102114.41;;;23.37;64.41
16580;BME280;8402;51.466;6.806;2022-07-11T12:27:25;102106.22;;;23.44;63.97
16580;BME280;8402;51.466;6.806;2022-07-11T12:29:53;102102.69;;;23.47;64.12
16580;BME280;8402;51.466;6.806;2022-07-11T12:32:21;102091.78;;;23.57;64.20
16580;BME280;8402;51.466;6.806;2022-07-11T12:34:49;102097.53;;;23.68;63.49
16580;BME280;8402;51.466;6.806;2022-07-11T12:37:25;102098.34;;;23.69;62.66
16580;BME280;8402;51.466;6.806;2022-07-11T12:40:06;102097.53;;;23.68;62.96
16580;BME280;8402;51.466;6.806;2022-07-11T12:42:43;102090.53;;;23.74;62.66
16580;BME280;8402;51.466;6.806;2022-07-11T12:45:13;102091.44;;;23.82;63.19
16580;BME280;8402;51.466;6.806;2022-07-11T12:47:43;102093.28;;;23.74;63.11
16580;BME280;8402;51.466;6.806;2022-07-11T12:50:12;102094.47;;;23.73;63.29
16580;BME280;8402;51.466;6.806;2022-07-11T12:52:43;102092.22;;;23.82;63.59
16580;BME280;8402;51.466;6.806;2022-07-11T12:55:22;102090.44;;;23.94;63.18
16580;BME280;8402;51.466;6.806;2022-07-11T12:58:04;102092.94;;;24.02;62.41
16580;BME280;8402;51.466;6.806;2022-07-11T13:00:34;102092.59;;;24.07;62.71
16580;BME280;8402;51.466;6.806;2022-07-11T13:03:05;102094.66;;;24.14;62.90
16580;BME280;8402;51.466;6.806;2022-07-11T13:05:56;102087.97;;;24.15;62.85
16580;BME280;8402;51.466;6.806;2022-07-11T13:08:28;102091.19;;;24.21;61.88
16580;BME280;8402;51.466;6.806;2022-07-11T13:11:17;102093.28;;;24.27;62.60
16580;BME280;8402;51.466;6.806;2022-07-11T13:13:47;102101.19;;;24.25;62.17
16580;BME280;8402;51.466;6.806;2022-07-11T13:16:16;102104.72;;;24.22;62.38